Portada
METAR-TAF:

METAR-TAF

Aeropuertos :

Aeropuerto de Gerona

Gerona, España

latitud: 41-54N, longitud: 002-46E, altitud: 143 m

Observación

El informe se hizo hace 20 minutos, a las 13:30 UTC
Viento 9 kt del sur-suroeste, variando entre sur y oeste-suroeste
Temperatura 18°C
Humedad 32%
Presión 1031 hPa
Visibilidad 10 km o más
sin nubes por debajo de 1500 m y sin presencia de cumulonimbus.

METAR: LEGE 291330Z 21009KT 180V240 CAVOK 18/01 Q1031

Hora: 14:50 (13:50 UTC)

Pronóstico

El informe se hizo hace 2 horas y 50 minutos, a las 11:00 UTC
Pronóstico válido del 29 a las 12 UTC al 30 a las 12 UTC
Viento 3 kt con dirección variable
Visibilidad 10 km o más
sin nubes por debajo de 1500 m y sin presencia de cumulonimbus.
Temporalmente
del 29 a las 13 UTC al 29 a las 16 UTC
Viento 10 kt del sur

TAF: LEGE 291100Z 2912/3012 VRB03KT CAVOK TX20/2914Z TNM00/3006Z TEMPO 2913/2916 18010KT

Observaciones y pronósticos meteorológicos de más de 4000 aeropuertos (mensajes METAR y TAF).

Los puntos amarillos y rojos representan las estaciones disponibles.

Ponga el ratón en el punto deseado para ver el nombre de la estación.

Haga clic para ver las observaciones y los pronósticos meteorológicos.

Para cambiar el mapa : haga clic en los botones verdes con una cruz de color negro para hacer un zoom, en el botón verde con un guión para alejar o en las flechas verdes para mapas adyacentes.


METAR-TAF: